Time;durP1;ratioP1;P1;durP2;ratioP2;P2;SDS_P1;SDS_P2;PMS_P1;PMS_P2;Temp;Humidity;BMP_temperature;BMP_pressure;BME280_temperature;BME280_humidity;BME280_pressure;Samples;Min_cycle;Max_cycle;Signal;HPM_P1;HPM_P2
2023/08/24 00:00:51;;;;;;;9.07;5.60;;;;;;;;;;5017843;28;20036;-70
2023/08/24 00:03:16;;;;;;;8.80;5.47;;;;;;;;;;5008373;28;20129;-71
2023/08/24 00:05:43;;;;;;;9.55;5.35;;;;;;;;;;5007783;28;20076;-70
2023/08/24 00:08:09;;;;;;;9.20;5.05;;;;;;;;;;5007265;28;20093;-69
2023/08/24 00:10:36;;;;;;;10.35;5.40;;;;;;;;;;5007463;28;20084;-69
2023/08/24 00:13:02;;;;;;;7.35;4.95;;;;;;;;;;5006498;28;20026;-70
2023/08/24 00:15:28;;;;;;;10.10;4.80;;;;;;;;;;5007123;28;20129;-69
2023/08/24 00:17:53;;;;;;;9.75;5.60;;;;;;;;;;5006618;28;20128;-69
2023/08/24 00:20:19;;;;;;;7.93;5.60;;;;;;;;;;5006553;28;20129;-69
2023/08/24 00:22:46;;;;;;;7.40;5.05;;;;;;;;;;5006835;28;20030;-69
2023/08/24 00:25:11;;;;;;;10.30;5.45;;;;;;;;;;5006640;28;20026;-70
2023/08/24 00:27:37;;;;;;;8.00;5.47;;;;;;;;;;5007068;28;20422;-69
2023/08/24 00:30:06;;;;;;;9.63;5.65;;;;;;;;;;5000259;28;20062;-69
2023/08/24 00:32:35;;;;;;;10.75;5.18;;;;;;;;;;5010968;28;20033;-69
2023/08/24 00:35:06;;;;;;;9.65;5.68;;;;;;;;;;5026383;28;20431;-69
2023/08/24 00:37:32;;;;;;;9.27;5.10;;;;;;;;;;5026664;28;20453;-70
2023/08/24 00:40:00;;;;;;;9.30;5.35;;;;;;;;;;4995291;28;20039;-69
2023/08/24 00:42:26;;;;;;;8.27;5.40;;;;;;;;;;4992931;28;20088;-69
2023/08/24 00:44:51;;;;;;;9.32;5.20;;;;;;;;;;5006468;28;20034;-69
2023/08/24 00:47:17;;;;;;;7.03;4.95;;;;;;;;;;5002803;28;20061;-69
2023/08/24 00:49:42;;;;;;;8.90;5.30;;;;;;;;;;4996708;28;20033;-69
2023/08/24 00:52:09;;;;;;;8.10;4.78;;;;;;;;;;5005014;28;20486;-69
2023/08/24 00:54:36;;;;;;;7.60;5.00;;;;;;;;;;5005018;28;20042;-69
2023/08/24 00:57:02;;;;;;;7.85;5.20;;;;;;;;;;5005828;28;20037;-69
2023/08/24 00:59:27;;;;;;;10.15;5.20;;;;;;;;;;5006162;28;20038;-69
2023/08/24 01:01:53;;;;;;;9.65;5.40;;;;;;;;;;5001742;28;20779;-69
2023/08/24 01:04:18;;;;;;;9.93;5.03;;;;;;;;;;5025440;28;20850;-69
2023/08/24 01:06:44;;;;;;;7.85;4.55;;;;;;;;;;5007988;28;20045;-69
2023/08/24 01:09:09;;;;;;;8.38;4.90;;;;;;;;;;5025701;28;20044;-69
2023/08/24 01:11:57;;;;;;;6.60;4.50;;;;;;;;;;5025378;28;20120;-69
2023/08/24 01:14:40;;;;;;;8.27;4.53;;;;;;;;;;5007003;28;20057;-69
2023/08/24 01:17:09;;;;;;;;;;;;;;;;;;5026182;28;20053;-69
2023/08/24 01:19:41;;;;;;;8.73;5.00;;;;;;;;;;5026675;28;19920;-69
2023/08/24 01:22:54;;;;;;;7.45;4.75;;;;;;;;;;5026254;28;20033;-69
2023/08/24 01:25:51;;;;;;;7.38;4.93;;;;;;;;;;4942715;28;20103;-69
2023/08/24 01:28:18;;;;;;;7.88;4.88;;;;;;;;;;5033077;28;20037;-69
2023/08/24 01:30:44;;;;;;;6.65;4.20;;;;;;;;;;5024033;28;20067;-69
2023/08/24 01:33:11;;;;;;;8.57;4.95;;;;;;;;;;5022291;28;20045;-69
2023/08/24 01:35:37;;;;;;;10.80;4.65;;;;;;;;;;5018328;28;20045;-69
2023/08/24 01:38:04;;;;;;;6.95;4.32;;;;;;;;;;5005072;28;20057;-69
2023/08/24 01:40:39;;;;;;;9.18;4.80;;;;;;;;;;5005981;28;20026;-69
2023/08/24 01:43:07;;;;;;;7.82;4.68;;;;;;;;;;5005142;28;20133;-69
2023/08/24 01:45:33;;;;;;;7.60;4.80;;;;;;;;;;5003968;28;20065;-69
2023/08/24 01:48:02;;;;;;;8.38;4.90;;;;;;;;;;5005371;28;20034;-69
2023/08/24 01:50:29;;;;;;;9.13;5.03;;;;;;;;;;5004055;28;20121;-69
2023/08/24 01:52:55;;;;;;;8.38;4.78;;;;;;;;;;5006173;28;20009;-68
2023/08/24 01:55:20;;;;;;;8.35;5.15;;;;;;;;;;5025531;28;20376;-69
2023/08/24 01:57:47;;;;;;;9.90;5.18;;;;;;;;;;5024563;28;20533;-69
2023/08/24 02:00:13;;;;;;;8.00;4.97;;;;;;;;;;5007075;28;20045;-69
2023/08/24 02:02:38;;;;;;;8.98;6.13;;;;;;;;;;5022352;28;20581;-69
2023/08/24 02:05:04;;;;;;;9.00;5.82;;;;;;;;;;5024293;28;21539;-69
2023/08/24 02:07:29;;;;;;;13.05;6.80;;;;;;;;;;5024786;28;20104;-69
2023/08/24 02:09:55;;;;;;;14.68;7.85;;;;;;;;;;5007106;28;20034;-69
2023/08/24 02:12:20;;;;;;;8.50;6.18;;;;;;;;;;5024109;28;20030;-69
2023/08/24 02:14:46;;;;;;;14.02;7.65;;;;;;;;;;5024499;28;20125;-69
2023/08/24 02:17:11;;;;;;;11.35;7.25;;;;;;;;;;5024746;28;20447;-69
2023/08/24 02:19:37;;;;;;;12.95;7.13;;;;;;;;;;5025559;28;20022;-69
2023/08/24 02:22:02;;;;;;;13.15;7.57;;;;;;;;;;5024332;28;20048;-69
2023/08/24 02:24:28;;;;;;;13.10;6.28;;;;;;;;;;5025474;28;20652;-69
2023/08/24 02:26:53;;;;;;;10.27;6.05;;;;;;;;;;5027636;28;20045;-69
2023/08/24 02:29:18;;;;;;;11.80;6.13;;;;;;;;;;5028521;28;20043;-69
2023/08/24 02:31:44;;;;;;;11.32;6.63;;;;;;;;;;5010788;28;20041;-69
2023/08/24 02:34:09;;;;;;;9.18;5.40;;;;;;;;;;5023082;28;20088;-69
2023/08/24 02:36:35;;;;;;;17.55;6.15;;;;;;;;;;5021690;28;20091;-69
2023/08/24 02:39:00;;;;;;;10.05;6.13;;;;;;;;;;5028514;28;20072;-68
2023/08/24 02:41:26;;;;;;;12.00;6.50;;;;;;;;;;5028234;28;20044;-68
2023/08/24 02:43:52;;;;;;;10.63;5.80;;;;;;;;;;5015721;28;20025;-68
2023/08/24 02:46:18;;;;;;;10.88;6.03;;;;;;;;;;5011426;28;20036;-69
2023/08/24 02:48:44;;;;;;;10.50;6.60;;;;;;;;;;5029881;28;20033;-69
2023/08/24 02:51:10;;;;;;;12.38;6.63;;;;;;;;;;5016918;28;20112;-68
2023/08/24 02:53:36;;;;;;;10.43;6.22;;;;;;;;;;5042185;28;20431;-69
2023/08/24 02:56:02;;;;;;;11.32;6.50;;;;;;;;;;5029005;28;20552;-69
2023/08/24 02:58:27;;;;;;;9.85;6.25;;;;;;;;;;5009199;28;20042;-69
2023/08/24 03:00:53;;;;;;;9.75;6.32;;;;;;;;;;4995617;28;20034;-69
2023/08/24 03:03:18;;;;;;;13.80;5.75;;;;;;;;;;5008466;28;20068;-69
2023/08/24 03:05:56;;;;;;;11.43;6.65;;;;;;;;;;5008729;28;20052;-69
2023/08/24 03:08:21;;;;;;;13.45;6.88;;;;;;;;;;5008322;28;20566;-69
2023/08/24 03:10:47;;;;;;;10.85;6.47;;;;;;;;;;5008363;28;20033;-68
2023/08/24 03:13:13;;;;;;;9.75;6.45;;;;;;;;;;5008902;28;20471;-69
2023/08/24 03:15:39;;;;;;;9.57;6.70;;;;;;;;;;5007808;28;20034;-69
2023/08/24 03:18:04;;;;;;;12.60;6.18;;;;;;;;;;5008058;28;20037;-69
2023/08/24 03:20:29;;;;;;;12.38;6.40;;;;;;;;;;5008229;28;20120;-69
2023/08/24 03:22:55;;;;;;;11.73;5.97;;;;;;;;;;5007780;28;20030;-68
2023/08/24 03:25:21;;;;;;;9.10;5.88;;;;;;;;;;5007862;28;20022;-69
2023/08/24 03:27:47;;;;;;;11.18;6.22;;;;;;;;;;5006891;28;20038;-69
2023/08/24 03:30:13;;;;;;;8.60;5.80;;;;;;;;;;5007210;28;20056;-69
2023/08/24 03:32:39;;;;;;;9.82;6.45;;;;;;;;;;5006663;28;20033;-69
2023/08/24 03:35:05;;;;;;;9.82;6.05;;;;;;;;;;5007614;28;20100;-69
2023/08/24 03:37:30;;;;;;;12.65;6.18;;;;;;;;;;5008298;28;20026;-69
2023/08/24 03:39:56;;;;;;;11.25;6.05;;;;;;;;;;5007477;28;20100;-69
2023/08/24 03:42:21;;;;;;;12.52;7.10;;;;;;;;;;5005845;28;20030;-69
2023/08/24 03:44:47;;;;;;;8.40;6.13;;;;;;;;;;5007256;28;20034;-69
2023/08/24 03:47:12;;;;;;;11.10;6.47;;;;;;;;;;5007279;28;20041;-69
2023/08/24 03:49:37;;;;;;;10.25;6.03;;;;;;;;;;5007598;28;20109;-69
2023/08/24 03:52:03;;;;;;;10.48;6.10;;;;;;;;;;5007130;28;20468;-69
2023/08/24 03:54:28;;;;;;;12.52;5.93;;;;;;;;;;5007539;28;20088;-69
2023/08/24 03:56:54;;;;;;;12.23;6.40;;;;;;;;;;5007238;28;20033;-69
2023/08/24 03:59:19;;;;;;;6.25;5.30;;;;;;;;;;5007850;28;20034;-69
2023/08/24 04:01:44;;;;;;;10.32;6.03;;;;;;;;;;5007496;28;20428;-69
2023/08/24 04:04:10;;;;;;;9.52;5.88;;;;;;;;;;5023943;28;20399;-69
2023/08/24 04:06:36;;;;;;;9.82;5.90;;;;;;;;;;5027412;28;20025;-69
2023/08/24 04:09:01;;;;;;;9.60;6.13;;;;;;;;;;5027175;28;20033;-69
2023/08/24 04:11:27;;;;;;;8.70;6.07;;;;;;;;;;5009183;28;20032;-69
2023/08/24 04:13:52;;;;;;;8.95;5.45;;;;;;;;;;5027722;28;20167;-69
2023/08/24 04:16:18;;;;;;;8.10;5.50;;;;;;;;;;5030054;28;20045;-69
2023/08/24 04:18:43;;;;;;;10.32;6.07;;;;;;;;;;5036010;28;20037;-69
2023/08/24 04:21:09;;;;;;;9.60;5.45;;;;;;;;;;5034997;28;20412;-69
2023/08/24 04:23:34;;;;;;;11.52;6.60;;;;;;;;;;5026706;28;20041;-69
2023/08/24 04:26:00;;;;;;;8.57;5.50;;;;;;;;;;5026297;28;20036;-69
2023/08/24 04:28:25;;;;;;;9.90;5.88;;;;;;;;;;5027192;28;20029;-69
2023/08/24 04:30:55;;;;;;;11.70;5.90;;;;;;;;;;5007361;28;20054;-68
2023/08/24 04:33:21;;;;;;;10.55;5.55;;;;;;;;;;5025048;28;20041;-69
2023/08/24 04:35:48;;;;;;;9.80;5.72;;;;;;;;;;5015234;28;20560;-69
2023/08/24 04:38:14;;;;;;;9.00;5.88;;;;;;;;;;4999530;28;20048;-68
2023/08/24 04:40:46;;;;;;;10.95;5.88;;;;;;;;;;5026108;28;20025;-69
2023/08/24 04:43:11;;;;;;;12.97;5.60;;;;;;;;;;5006444;28;20458;-69
2023/08/24 04:45:37;;;;;;;12.60;6.05;;;;;;;;;;5005707;28;20511;-69
2023/08/24 04:48:02;;;;;;;10.77;6.28;;;;;;;;;;5005674;28;20103;-69
2023/08/24 04:50:28;;;;;;;10.40;6.10;;;;;;;;;;5006288;28;20034;-69
2023/08/24 04:52:53;;;;;;;10.70;5.70;;;;;;;;;;5006743;28;20053;-69
2023/08/24 04:55:18;;;;;;;8.32;5.65;;;;;;;;;;5005135;28;20022;-69
2023/08/24 04:57:44;;;;;;;11.65;6.78;;;;;;;;;;5022732;28;20196;-68
2023/08/24 05:00:15;;;;;;;13.15;6.18;;;;;;;;;;5026215;28;20037;-69
2023/08/24 05:02:41;;;;;;;10.85;6.10;;;;;;;;;;5007918;28;20061;-69
2023/08/24 05:05:07;;;;;;;15.65;6.15;;;;;;;;;;5025697;28;20053;-69
2023/08/24 05:07:32;;;;;;;14.30;7.15;;;;;;;;;;5026682;28;20021;-69
2023/08/24 05:09:57;;;;;;;14.05;6.32;;;;;;;;;;5026150;28;20709;-69
2023/08/24 05:12:23;;;;;;;13.15;6.30;;;;;;;;;;5024909;28;20030;-69
2023/08/24 05:14:48;;;;;;;15.70;6.78;;;;;;;;;;5024162;28;20534;-69
2023/08/24 05:17:14;;;;;;;14.02;6.80;;;;;;;;;;5025279;28;20118;-69
2023/08/24 05:19:39;;;;;;;11.43;6.30;;;;;;;;;;5025961;28;20021;-69
2023/08/24 05:22:04;;;;;;;16.00;6.43;;;;;;;;;;5025584;28;20033;-69
2023/08/24 05:24:30;;;;;;;12.05;7.00;;;;;;;;;;5024774;28;20029;-67
2023/08/24 05:26:55;;;;;;;12.57;5.78;;;;;;;;;;5001637;28;20044;-69
2023/08/24 05:29:20;;;;;;;14.45;6.05;;;;;;;;;;5001149;28;20038;-69
2023/08/24 05:31:46;;;;;;;11.30;5.63;;;;;;;;;;5002538;28;20053;-68
2023/08/24 05:34:11;;;;;;;10.82;6.05;;;;;;;;;;4997202;28;20744;-69
2023/08/24 05:36:36;;;;;;;9.05;5.97;;;;;;;;;;4995753;28;20038;-68
2023/08/24 05:39:03;;;;;;;14.32;5.90;;;;;;;;;;4984350;28;20042;-69
2023/08/24 05:41:28;;;;;;;13.70;5.97;;;;;;;;;;5004355;28;20041;-69
2023/08/24 05:43:53;;;;;;;7.97;5.85;;;;;;;;;;5022846;28;20022;-69
2023/08/24 05:46:19;;;;;;;10.98;6.03;;;;;;;;;;5023909;28;20017;-68
2023/08/24 05:48:44;;;;;;;10.70;6.07;;;;;;;;;;5009432;28;20652;-69
2023/08/24 05:51:12;;;;;;;11.07;5.93;;;;;;;;;;5005457;28;20036;-69
2023/08/24 05:53:38;;;;;;;10.23;5.90;;;;;;;;;;5004947;28;20486;-69
2023/08/24 05:56:03;;;;;;;11.80;6.43;;;;;;;;;;5002713;28;20474;-69
2023/08/24 05:58:29;;;;;;;11.43;5.90;;;;;;;;;;5013188;28;20050;-69
2023/08/24 06:00:58;;;;;;;10.80;6.07;;;;;;;;;;5020792;28;20034;-69
2023/08/24 06:03:25;;;;;;;18.27;5.95;;;;;;;;;;5009990;28;20100;-69
2023/08/24 06:05:51;;;;;;;10.27;5.60;;;;;;;;;;5003537;28;20056;-69
2023/08/24 06:08:16;;;;;;;11.88;6.25;;;;;;;;;;5002517;28;20022;-69
2023/08/24 06:10:41;;;;;;;9.43;5.95;;;;;;;;;;5004746;28;20124;-69
2023/08/24 06:13:07;;;;;;;10.35;5.93;;;;;;;;;;5004648;28;20731;-69
2023/08/24 06:15:32;;;;;;;14.75;6.45;;;;;;;;;;5004806;28;20427;-69
2023/08/24 06:17:59;;;;;;;12.68;5.95;;;;;;;;;;5004407;28;20124;-69
2023/08/24 06:20:24;;;;;;;13.10;6.32;;;;;;;;;;5004682;28;20038;-69
2023/08/24 06:22:50;;;;;;;9.10;5.70;;;;;;;;;;5004554;28;20506;-69
2023/08/24 06:25:15;;;;;;;10.45;5.72;;;;;;;;;;5004140;28;20018;-69
2023/08/24 06:27:41;;;;;;;11.20;5.60;;;;;;;;;;5005226;28;20045;-69
2023/08/24 06:30:07;;;;;;;11.73;6.05;;;;;;;;;;5002596;28;20052;-69
2023/08/24 06:32:32;;;;;;;10.32;5.70;;;;;;;;;;4989365;28;20226;-69
2023/08/24 06:34:58;;;;;;;10.30;5.75;;;;;;;;;;4982015;28;20033;-69
2023/08/24 06:37:23;;;;;;;12.88;6.85;;;;;;;;;;5004229;28;20018;-69
2023/08/24 06:39:49;;;;;;;10.32;5.00;;;;;;;;;;4996540;28;20033;-69
2023/08/24 06:42:14;;;;;;;12.45;5.88;;;;;;;;;;5003615;28;20038;-69
2023/08/24 06:44:39;;;;;;;16.33;6.18;;;;;;;;;;4998138;28;20120;-69
2023/08/24 06:47:05;;;;;;;10.13;5.82;;;;;;;;;;4981837;28;20444;-68
2023/08/24 06:49:30;;;;;;;9.40;4.95;;;;;;;;;;4989798;28;20038;-68
2023/08/24 06:51:56;;;;;;;6.53;4.95;;;;;;;;;;4999098;28;20061;-68
2023/08/24 06:54:22;;;;;;;8.07;5.65;;;;;;;;;;5009304;28;20040;-68
2023/08/24 06:56:48;;;;;;;11.13;4.97;;;;;;;;;;5013555;28;20100;-69
2023/08/24 06:59:13;;;;;;;8.35;5.22;;;;;;;;;;5004207;28;20065;-69
2023/08/24 07:01:40;;;;;;;6.72;4.80;;;;;;;;;;5004275;28;20048;-69
2023/08/24 07:04:06;;;;;;;10.23;4.75;;;;;;;;;;5005121;28;20095;-69
2023/08/24 07:06:34;;;;;;;6.82;4.90;;;;;;;;;;5019394;28;20034;-69
2023/08/24 07:08:59;;;;;;;7.68;4.60;;;;;;;;;;5026058;28;20399;-69
2023/08/24 07:11:25;;;;;;;8.93;5.00;;;;;;;;;;5033318;28;20044;-69
2023/08/24 07:13:53;;;;;;;8.25;4.88;;;;;;;;;;5036819;28;20080;-68
2023/08/24 07:16:18;;;;;;;7.05;4.53;;;;;;;;;;5027562;28;20021;-69
2023/08/24 07:18:44;;;;;;;8.40;4.30;;;;;;;;;;5027568;28;20043;-69
2023/08/24 07:21:09;;;;;;;6.90;4.47;;;;;;;;;;5015763;28;20034;-69
2023/08/24 07:23:35;;;;;;;6.05;3.88;;;;;;;;;;5007544;28;20045;-69
2023/08/24 07:26:00;;;;;;;7.47;4.35;;;;;;;;;;4988888;28;20403;-69
2023/08/24 07:28:25;;;;;;;6.03;4.25;;;;;;;;;;5007797;28;20108;-68
2023/08/24 07:30:55;;;;;;;6.07;4.03;;;;;;;;;;5005493;28;20427;-69
2023/08/24 07:33:21;;;;;;;5.40;4.47;;;;;;;;;;4993459;28;20030;-69
2023/08/24 07:35:47;;;;;;;7.40;4.55;;;;;;;;;;4986891;28;20412;-69
2023/08/24 07:38:12;;;;;;;7.43;4.72;;;;;;;;;;4982403;28;20037;-68
2023/08/24 07:40:37;;;;;;;8.45;4.60;;;;;;;;;;4976441;28;20030;-69
2023/08/24 07:43:03;;;;;;;8.07;5.10;;;;;;;;;;4991053;28;20046;-69
2023/08/24 07:45:29;;;;;;;8.52;4.80;;;;;;;;;;4999783;28;20045;-68
2023/08/24 07:47:55;;;;;;;9.00;4.65;;;;;;;;;;4996419;28;20127;-68
2023/08/24 07:50:22;;;;;;;8.95;4.60;;;;;;;;;;4978556;28;20037;-68
2023/08/24 07:52:48;;;;;;;6.95;4.57;;;;;;;;;;4989377;28;20037;-68
2023/08/24 07:55:13;;;;;;;6.50;5.00;;;;;;;;;;4998851;28;20026;-68
2023/08/24 07:57:39;;;;;;;6.47;4.38;;;;;;;;;;5006827;28;20045;-68
2023/08/24 08:00:09;;;;;;;8.35;4.50;;;;;;;;;;4997411;28;20113;-68
2023/08/24 08:02:34;;;;;;;8.70;4.90;;;;;;;;;;5001578;28;20035;-68
2023/08/24 08:04:59;;;;;;;10.20;5.05;;;;;;;;;;4999911;28;20450;-68
2023/08/24 08:07:26;;;;;;;6.40;4.63;;;;;;;;;;4994682;28;20541;-68
2023/08/24 08:09:51;;;;;;;9.43;5.25;;;;;;;;;;4997288;28;20048;-68
2023/08/24 08:12:17;;;;;;;11.40;5.72;;;;;;;;;;4985978;28;20042;-68
2023/08/24 08:14:42;;;;;;;10.80;5.45;;;;;;;;;;4989761;28;20034;-68
2023/08/24 08:17:08;;;;;;;9.25;4.75;;;;;;;;;;4989990;28;20026;-68
2023/08/24 08:19:35;;;;;;;9.25;4.88;;;;;;;;;;4982468;28;20106;-67
2023/08/24 08:22:01;;;;;;;10.70;5.05;;;;;;;;;;5000949;28;20037;-68
2023/08/24 08:24:26;;;;;;;9.07;5.63;;;;;;;;;;4986648;28;20038;-68
2023/08/24 08:26:52;;;;;;;7.43;4.63;;;;;;;;;;4983559;28;20148;-68
2023/08/24 08:29:17;;;;;;;9.10;5.10;;;;;;;;;;4990548;28;20042;-68
2023/08/24 08:31:43;;;;;;;7.75;5.10;;;;;;;;;;5005233;28;20050;-67
2023/08/24 08:34:08;;;;;;;6.88;4.85;;;;;;;;;;5005713;28;20076;-68
2023/08/24 08:36:33;;;;;;;11.02;5.25;;;;;;;;;;5024932;28;20033;-68
2023/08/24 08:38:59;;;;;;;9.35;5.22;;;;;;;;;;5035175;28;20041;-68
2023/08/24 08:41:30;;;;;;;10.90;4.53;;;;;;;;;;5033562;28;20047;-68
2023/08/24 08:43:55;;;;;;;9.13;4.90;;;;;;;;;;5022358;28;20141;-67
2023/08/24 08:46:21;;;;;;;8.05;4.72;;;;;;;;;;5026676;28;20049;-68
2023/08/24 08:48:48;;;;;;;11.57;5.28;;;;;;;;;;5008700;28;20042;-68
2023/08/24 08:51:16;;;;;;;12.02;5.93;;;;;;;;;;5003776;28;20133;-68
2023/08/24 08:53:42;;;;;;;9.40;5.88;;;;;;;;;;5010059;28;20096;-68
2023/08/24 08:56:08;;;;;;;12.38;6.40;;;;;;;;;;4998114;28;20034;-68
2023/08/24 08:58:36;;;;;;;12.25;5.88;;;;;;;;;;5017395;28;20041;-68
2023/08/24 09:01:03;;;;;;;10.90;6.20;;;;;;;;;;5022410;28;20042;-68
2023/08/24 09:03:31;;;;;;;10.27;7.53;;;;;;;;;;5027332;28;20049;-68
2023/08/24 09:05:57;;;;;;;15.75;7.55;;;;;;;;;;5026622;28;20091;-68
2023/08/24 09:08:23;;;;;;;14.25;8.35;;;;;;;;;;5026883;28;20045;-69
2023/08/24 09:10:49;;;;;;;15.13;8.82;;;;;;;;;;5021696;28;20022;-68
2023/08/24 09:13:14;;;;;;;19.27;11.25;;;;;;;;;;5024131;28;20029;-68
2023/08/24 09:15:40;;;;;;;16.77;10.98;;;;;;;;;;5005450;28;20033;-68
2023/08/24 09:18:05;;;;;;;25.88;12.68;;;;;;;;;;5013075;28;20128;-68
2023/08/24 09:20:31;;;;;;;27.90;13.88;;;;;;;;;;5012076;28;20125;-68
2023/08/24 09:22:57;;;;;;;27.77;14.18;;;;;;;;;;5006523;28;20053;-68
2023/08/24 09:25:23;;;;;;;22.35;12.43;;;;;;;;;;5006612;28;20014;-68
2023/08/24 09:27:57;;;;;;;20.92;12.65;;;;;;;;;;5005494;28;20057;-68
2023/08/24 09:30:23;;;;;;;17.88;11.63;;;;;;;;;;4999609;28;20435;-68
2023/08/24 09:32:48;;;;;;;19.40;12.73;;;;;;;;;;5004624;28;20030;-68
2023/08/24 09:35:15;;;;;;;19.75;13.60;;;;;;;;;;4986991;28;20041;-68
2023/08/24 09:37:45;;;;;;;22.10;13.88;;;;;;;;;;5007096;28;20034;-68
2023/08/24 09:40:11;;;;;;;25.15;14.45;;;;;;;;;;4975632;28;20037;-67
2023/08/24 09:42:39;;;;;;;21.77;14.35;;;;;;;;;;5001463;28;20038;-68
2023/08/24 09:45:06;;;;;;;27.17;14.38;;;;;;;;;;4991237;28;20065;-68
2023/08/24 09:47:31;;;;;;;23.50;14.95;;;;;;;;;;5000777;28;20034;-68
2023/08/24 09:49:57;;;;;;;26.45;14.13;;;;;;;;;;4984688;28;20037;-69
2023/08/24 09:52:26;;;;;;;23.63;13.07;;;;;;;;;;4998968;28;20545;-68
2023/08/24 09:54:52;;;;;;;24.85;14.18;;;;;;;;;;5010063;28;20025;-68
2023/08/24 09:57:19;;;;;;;23.13;13.45;;;;;;;;;;5004691;28;20037;-68
2023/08/24 09:59:46;;;;;;;22.13;13.65;;;;;;;;;;4991600;28;20037;-69
2023/08/24 10:02:23;;;;;;;22.58;13.20;;;;;;;;;;4987417;28;20035;-68
2023/08/24 10:04:52;;;;;;;18.55;12.30;;;;;;;;;;4988102;28;20100;-68
2023/08/24 10:07:20;;;;;;;15.77;10.75;;;;;;;;;;4973709;28;20098;-68
2023/08/24 10:09:49;;;;;;;16.42;8.70;;;;;;;;;;4968358;28;20031;-69
2023/08/24 10:12:18;;;;;;;19.05;11.88;;;;;;;;;;4968709;28;20026;-68
2023/08/24 10:14:43;;;;;;;18.45;11.80;;;;;;;;;;4971213;28;20038;-68
2023/08/24 10:17:10;;;;;;;18.95;11.38;;;;;;;;;;4971801;28;20050;-68
2023/08/24 10:19:36;;;;;;;15.98;10.88;;;;;;;;;;4970980;28;20546;-68
2023/08/24 10:22:03;;;;;;;22.10;11.52;;;;;;;;;;4981625;28;20037;-68
2023/08/24 10:24:29;;;;;;;19.42;11.20;;;;;;;;;;5003817;28;20029;-69
2023/08/24 10:26:56;;;;;;;18.65;11.98;;;;;;;;;;5003418;28;20038;-68
2023/08/24 10:29:22;;;;;;;22.33;12.18;;;;;;;;;;5003455;28;20045;-68
2023/08/24 10:31:48;;;;;;;20.13;12.30;;;;;;;;;;5020925;28;20053;-68
2023/08/24 10:34:14;;;;;;;20.05;11.32;;;;;;;;;;5021910;28;20076;-68
2023/08/24 10:36:40;;;;;;;22.08;13.13;;;;;;;;;;5022632;28;20057;-68
2023/08/24 10:39:06;;;;;;;19.40;11.13;;;;;;;;;;5024072;28;20110;-68
2023/08/24 10:41:46;;;;;;;21.58;13.30;;;;;;;;;;5023659;28;20438;-68
2023/08/24 10:44:20;;;;;;;19.25;11.63;;;;;;;;;;5023043;28;20053;-68
2023/08/24 10:47:05;;;;;;;;;;;;;;;;;;5027464;28;20091;-68
2023/08/24 10:49:32;;;;;;;13.45;8.55;;;;;;;;;;5027280;28;19928;-68
2023/08/24 10:51:57;;;;;;;16.70;11.52;;;;;;;;;;5027468;28;20045;-68
2023/08/24 10:54:32;;;;;;;17.70;11.27;;;;;;;;;;5026602;28;20029;-67
2023/08/24 10:57:02;;;;;;;18.35;10.57;;;;;;;;;;5023538;28;20056;-68
2023/08/24 10:59:34;;;;;;;16.75;10.70;;;;;;;;;;5024575;28;20045;-68
2023/08/24 11:02:01;;;;;;;12.57;9.45;;;;;;;;;;5026464;28;20583;-68
2023/08/24 11:04:27;;;;;;;15.55;9.88;;;;;;;;;;5015866;28;20151;-68
2023/08/24 11:07:01;;;;;;;14.68;9.93;;;;;;;;;;5003810;28;20068;-68
2023/08/24 11:09:46;;;;;;;16.15;11.10;;;;;;;;;;5006998;28;20091;-68
2023/08/24 11:12:11;;;;;;;15.82;11.13;;;;;;;;;;5007785;28;20499;-68
2023/08/24 11:14:54;;;;;;;17.45;10.45;;;;;;;;;;5026156;28;20048;-68
2023/08/24 11:17:23;;;;;;;12.33;10.63;;;;;;;;;;5025359;28;20511;-68
2023/08/24 11:19:49;;;;;;;14.90;10.32;;;;;;;;;;5026430;28;20307;-68
2023/08/24 11:22:17;;;;;;;14.82;10.85;;;;;;;;;;5022683;28;20081;-68
2023/08/24 11:24:42;;;;;;;16.27;11.98;;;;;;;;;;5008576;28;20033;-67
2023/08/24 11:27:09;;;;;;;16.23;12.40;;;;;;;;;;5024506;28;20033;-68
2023/08/24 11:29:34;;;;;;;19.85;12.68;;;;;;;;;;5011400;28;20054;-68
2023/08/24 11:31:59;;;;;;;17.75;13.15;;;;;;;;;;4999545;28;20046;-67
2023/08/24 11:34:25;;;;;;;21.80;12.80;;;;;;;;;;5021565;28;20042;-68
2023/08/24 11:36:50;;;;;;;17.90;13.13;;;;;;;;;;5025643;28;20061;-68
2023/08/24 11:39:22;;;;;;;20.13;13.00;;;;;;;;;;4998071;28;20061;-68
2023/08/24 11:42:05;;;;;;;17.23;13.13;;;;;;;;;;5021963;28;20083;-68
2023/08/24 11:44:51;;;;;;;20.83;13.50;;;;;;;;;;5026381;28;20049;-68
2023/08/24 11:47:19;;;;;;;21.67;13.02;;;;;;;;;;5015737;28;20045;-68
2023/08/24 11:49:46;;;;;;;30.00;17.65;;;;;;;;;;5023927;28;20133;-68
2023/08/24 11:52:11;;;;;;;24.92;16.83;;;;;;;;;;5020416;28;20042;-68
2023/08/24 11:54:39;;;;;;;26.45;16.23;;;;;;;;;;5019720;28;20037;-68
2023/08/24 11:57:08;;;;;;;20.40;14.63;;;;;;;;;;4997967;28;20779;-68
2023/08/24 11:59:35;;;;;;;20.50;13.65;;;;;;;;;;5008767;28;20038;-68
2023/08/24 12:02:01;;;;;;;19.35;12.73;;;;;;;;;;5005269;28;20895;-68
2023/08/24 12:04:26;;;;;;;15.15;10.23;;;;;;;;;;5013204;28;20098;-68
2023/08/24 12:06:51;;;;;;;14.32;9.70;;;;;;;;;;5025936;28;20042;-68
2023/08/24 12:09:17;;;;;;;13.63;9.98;;;;;;;;;;5026585;28;20044;-68
2023/08/24 12:11:42;;;;;;;16.77;9.20;;;;;;;;;;5002386;28;20091;-68
2023/08/24 12:14:16;;;;;;;14.23;9.32;;;;;;;;;;5012925;28;20046;-68
2023/08/24 12:16:42;;;;;;;14.55;8.15;;;;;;;;;;5025177;28;20564;-68
2023/08/24 12:19:07;;;;;;;19.50;9.07;;;;;;;;;;5025580;28;20116;-68
2023/08/24 12:21:33;;;;;;;14.73;11.23;;;;;;;;;;5021703;28;20060;-67
2023/08/24 12:24:01;;;;;;;16.98;11.05;;;;;;;;;;5025904;28;20394;-68
2023/08/24 12:26:27;;;;;;;14.70;9.93;;;;;;;;;;5023323;28;20033;-68
2023/08/24 12:28:55;;;;;;;12.82;7.88;;;;;;;;;;5026097;28;20064;-68
2023/08/24 12:31:20;;;;;;;12.00;8.52;;;;;;;;;;5023318;28;20045;-68
2023/08/24 12:33:58;;;;;;;10.93;7.07;;;;;;;;;;5014891;28;20036;-68
2023/08/24 12:36:24;;;;;;;13.40;6.97;;;;;;;;;;5026212;28;20091;-68
2023/08/24 12:38:49;;;;;;;11.95;7.72;;;;;;;;;;5024278;28;20370;-68
2023/08/24 12:41:14;;;;;;;19.23;8.65;;;;;;;;;;5014378;28;20124;-68
2023/08/24 12:43:40;;;;;;;15.27;6.43;;;;;;;;;;5013337;28;20050;-68
2023/08/24 12:46:05;;;;;;;15.43;7.13;;;;;;;;;;5011273;28;20380;-68
2023/08/24 12:48:30;;;;;;;14.35;6.55;;;;;;;;;;5000440;28;20033;-68
2023/08/24 12:50:56;;;;;;;11.38;5.68;;;;;;;;;;4997714;28;20223;-68
2023/08/24 12:53:21;;;;;;;11.98;5.50;;;;;;;;;;5005587;28;20034;-68
2023/08/24 12:55:47;;;;;;;11.27;5.32;;;;;;;;;;5007864;28;20085;-68
2023/08/24 12:58:12;;;;;;;6.93;3.58;;;;;;;;;;4995919;28;20044;-68
2023/08/24 13:00:37;;;;;;;8.85;4.55;;;;;;;;;;5010535;28;20465;-68
2023/08/24 13:03:03;;;;;;;10.45;3.63;;;;;;;;;;5005160;28;20034;-68
2023/08/24 13:05:28;;;;;;;8.40;4.60;;;;;;;;;;5004896;28;20046;-68
2023/08/24 13:07:54;;;;;;;5.65;3.50;;;;;;;;;;5004655;28;20042;-68
2023/08/24 13:10:20;;;;;;;5.13;3.03;;;;;;;;;;5006171;28;20050;-68
2023/08/24 13:12:45;;;;;;;5.90;2.72;;;;;;;;;;5004602;28;20076;-68
2023/08/24 13:15:15;;;;;;;5.43;2.72;;;;;;;;;;4992709;28;20500;-68
2023/08/24 13:17:40;;;;;;;4.93;3.00;;;;;;;;;;4993229;28;20772;-68
2023/08/24 13:20:06;;;;;;;9.70;3.05;;;;;;;;;;5008627;28;20045;-68
2023/08/24 13:22:31;;;;;;;3.05;2.30;;;;;;;;;;4995231;28;20439;-68
2023/08/24 13:24:57;;;;;;;4.60;2.53;;;;;;;;;;4997069;28;20044;-67
2023/08/24 13:27:22;;;;;;;7.60;3.03;;;;;;;;;;4989519;28;20026;-68
2023/08/24 13:29:47;;;;;;;11.82;3.50;;;;;;;;;;5010647;28;20100;-67
2023/08/24 13:32:13;;;;;;;17.55;6.20;;;;;;;;;;5010158;28;20029;-68
2023/08/24 13:34:39;;;;;;;24.75;9.48;;;;;;;;;;5019174;28;20087;-68
2023/08/24 13:37:04;;;;;;;32.63;11.65;;;;;;;;;;5013025;28;20048;-68
2023/08/24 13:39:30;;;;;;;41.85;12.35;;;;;;;;;;5006489;28;20040;-67
2023/08/24 13:41:56;;;;;;;40.53;13.32;;;;;;;;;;5007290;28;20114;-68
2023/08/24 13:44:22;;;;;;;42.95;14.07;;;;;;;;;;5020191;28;20065;-68
2023/08/24 13:46:47;;;;;;;41.20;12.80;;;;;;;;;;5023584;28;20523;-68
2023/08/24 13:49:13;;;;;;;51.83;14.88;;;;;;;;;;5023894;28;20128;-68
2023/08/24 13:51:38;;;;;;;48.80;14.07;;;;;;;;;;5023558;28;20033;-68
2023/08/24 13:54:16;;;;;;;38.08;12.00;;;;;;;;;;5023795;28;20092;-67
2023/08/24 13:56:45;;;;;;;45.70;14.63;;;;;;;;;;5000928;28;20057;-67
2023/08/24 13:59:11;;;;;;;57.25;18.05;;;;;;;;;;5020359;28;20044;-68
2023/08/24 14:01:37;;;;;;;63.83;19.73;;;;;;;;;;5018870;28;20037;-68
2023/08/24 14:04:03;;;;;;;50.60;16.80;;;;;;;;;;5005537;28;20065;-67
2023/08/24 14:06:34;;;;;;;27.00;9.05;;;;;;;;;;5023266;28;20087;-68
2023/08/24 14:09:00;;;;;;;14.18;6.07;;;;;;;;;;5024306;28;20041;-68
2023/08/24 14:11:25;;;;;;;10.10;4.18;;;;;;;;;;5005476;28;20038;-68
2023/08/24 14:13:51;;;;;;;6.35;3.70;;;;;;;;;;4985041;28;20040;-67
2023/08/24 14:16:17;;;;;;;5.35;3.05;;;;;;;;;;4993063;28;20050;-68
2023/08/24 14:18:43;;;;;;;8.27;3.28;;;;;;;;;;4996726;28;20018;-67
2023/08/24 14:21:10;;;;;;;8.02;3.78;;;;;;;;;;5015495;28;20033;-68
2023/08/24 14:23:35;;;;;;;18.27;6.43;;;;;;;;;;5027408;28;20030;-67
2023/08/24 14:26:01;;;;;;;23.23;9.40;;;;;;;;;;5019449;28;20046;-68
2023/08/24 14:28:47;;;;;;;20.92;8.15;;;;;;;;;;5013899;28;20026;-67
2023/08/24 14:31:12;;;;;;;27.00;8.68;;;;;;;;;;5006734;28;20037;-68